createdAt,value
2023-04-06T00:00:42.208Z,15.30
2023-04-06T00:03:13.228Z,12.97
2023-04-06T00:05:44.245Z,13.80
2023-04-06T00:08:15.185Z,17.23
2023-04-06T00:10:46.048Z,14.90
2023-04-06T00:13:16.950Z,23.20
2023-04-06T00:15:47.911Z,11.43
2023-04-06T00:18:19.159Z,11.50
2023-04-06T00:20:50.014Z,11.77
2023-04-06T00:23:21.245Z,11.17
2023-04-06T00:25:52.195Z,14.83
2023-04-06T00:28:26.590Z,13.77
2023-04-06T00:30:57.455Z,20.27
2023-04-06T00:33:28.306Z,12.87
2023-04-06T00:35:59.200Z,12.03
2023-04-06T00:38:30.115Z,15.47
2023-04-06T00:41:01.136Z,12.53
2023-04-06T00:43:33.062Z,10.30
2023-04-06T00:46:03.977Z,16.07
2023-04-06T00:48:34.925Z,16.73
2023-04-06T00:51:06.085Z,17.37
2023-04-06T00:53:36.902Z,13.00
2023-04-06T00:56:10.772Z,14.50
2023-04-06T00:58:41.811Z,14.30
2023-04-06T01:01:12.722Z,13.07
2023-04-06T01:03:45.268Z,13.23
2023-04-06T01:06:16.169Z,10.53
2023-04-06T01:08:47.081Z,9.57
2023-04-06T01:11:19.068Z,14.30
2023-04-06T01:13:50.136Z,15.00
2023-04-06T01:16:21.121Z,12.03
2023-04-06T01:18:52.009Z,11.87
2023-04-06T01:21:23.275Z,14.43
2023-04-06T01:23:54.196Z,11.20
2023-04-06T01:26:25.100Z,9.53
2023-04-06T01:28:56.506Z,12.60
2023-04-06T01:31:27.547Z,15.67
2023-04-06T01:33:58.482Z,8.40
2023-04-06T01:36:29.431Z,9.53
2023-04-06T01:39:00.794Z,14.40
2023-04-06T01:41:31.856Z,11.57
2023-04-06T01:44:03.433Z,10.43
2023-04-06T01:46:34.355Z,9.70
2023-04-06T01:49:05.350Z,9.10
2023-04-06T01:51:36.268Z,11.40
2023-04-06T01:54:07.195Z,11.13
2023-04-06T01:56:38.051Z,10.03
2023-04-06T01:59:09.419Z,9.63
2023-04-06T02:01:40.569Z,18.47
2023-04-06T02:04:11.468Z,11.20
2023-04-06T02:06:42.412Z,11.23
2023-04-06T02:09:13.246Z,10.00
2023-04-06T02:11:44.084Z,8.90
2023-04-06T02:14:14.925Z,9.70
2023-04-06T02:16:45.789Z,10.93
2023-04-06T02:19:16.973Z,9.97
2023-04-06T02:21:47.834Z,10.10
2023-04-06T02:24:18.704Z,10.07
2023-04-06T02:26:49.569Z,15.30
2023-04-06T02:29:21.187Z,10.33
2023-04-06T02:31:52.066Z,13.93
2023-04-06T02:34:22.937Z,12.13
2023-04-06T02:36:53.830Z,14.90
2023-04-06T02:39:24.776Z,13.03
2023-04-06T02:41:58.039Z,16.83
2023-04-06T02:44:28.896Z,12.53
2023-04-06T02:46:59.846Z,13.93
2023-04-06T02:49:30.745Z,12.83
2023-04-06T02:52:01.728Z,12.60
2023-04-06T02:54:32.601Z,12.87
2023-04-06T02:57:03.603Z,14.23
2023-04-06T02:59:34.554Z,11.50
2023-04-06T03:02:05.427Z,9.43
2023-04-06T03:04:36.391Z,12.40
2023-04-06T03:07:07.276Z,16.40
2023-04-06T03:09:39.726Z,11.90
2023-04-06T03:12:10.621Z,15.07
2023-04-06T03:14:41.455Z,12.43
2023-04-06T03:17:12.444Z,13.33
2023-04-06T03:19:43.328Z,12.77
2023-04-06T03:22:14.194Z,14.17
2023-04-06T03:24:45.017Z,12.47
2023-04-06T03:27:15.969Z,12.37
2023-04-06T03:29:46.965Z,12.03
2023-04-06T03:32:17.889Z,14.30
2023-04-06T03:34:48.713Z,14.23
2023-04-06T03:37:19.561Z,14.13
2023-04-06T03:39:50.412Z,15.83
2023-04-06T03:42:21.406Z,17.87
2023-04-06T03:44:52.283Z,17.13
2023-04-06T03:47:23.669Z,12.47
2023-04-06T03:49:54.608Z,13.50
2023-04-06T03:52:25.460Z,13.37
2023-04-06T03:54:56.274Z,15.33
2023-04-06T03:57:27.113Z,12.17
2023-04-06T03:59:58.006Z,15.47
2023-04-06T04:02:29.187Z,13.80
2023-04-06T04:05:00.494Z,11.43
2023-04-06T04:07:31.735Z,15.50
2023-04-06T04:10:02.557Z,17.63
2023-04-06T04:12:33.395Z,12.17
2023-04-06T04:15:04.784Z,13.07
2023-04-06T04:17:35.677Z,14.60
2023-04-06T04:20:07.843Z,11.20
2023-04-06T04:22:38.719Z,13.13
2023-04-06T04:25:10.696Z,12.37
2023-04-06T04:27:41.594Z,14.50
2023-04-06T04:30:12.639Z,10.93
2023-04-06T04:32:43.556Z,14.33
2023-04-06T04:35:14.592Z,19.13
2023-04-06T04:37:45.522Z,13.50
2023-04-06T04:40:17.724Z,12.77
2023-04-06T04:42:48.612Z,16.90
2023-04-06T04:45:19.454Z,14.60
2023-04-06T04:47:50.388Z,13.67
2023-04-06T04:50:21.340Z,12.43
2023-04-06T04:52:52.255Z,15.90
2023-04-06T04:55:23.204Z,14.73
2023-04-06T04:57:54.122Z,14.30
2023-04-06T05:00:25.325Z,12.70
2023-04-06T05:02:56.454Z,13.20
2023-04-06T05:05:27.337Z,12.70
2023-04-06T05:07:58.189Z,12.63
2023-04-06T05:10:29.057Z,15.57
2023-04-06T05:13:00.045Z,12.10
2023-04-06T05:15:31.259Z,15.30
2023-04-06T05:18:02.560Z,15.73
2023-04-06T05:20:33.726Z,11.60
2023-04-06T05:23:04.614Z,11.27
2023-04-06T05:25:35.650Z,12.90
2023-04-06T05:28:06.620Z,20.43
2023-04-06T05:30:38.039Z,12.93
2023-04-06T05:33:09.071Z,14.00
2023-04-06T05:35:39.977Z,17.53
2023-04-06T05:38:11.285Z,21.47
2023-04-06T05:40:42.601Z,18.27
2023-04-06T05:43:13.488Z,18.00
2023-04-06T05:45:46.575Z,17.60
2023-04-06T05:48:17.454Z,21.03
2023-04-06T05:50:51.600Z,28.50
2023-04-06T05:53:22.541Z,14.10
2023-04-06T05:55:53.424Z,18.17
2023-04-06T05:58:24.292Z,20.10
2023-04-06T06:01:04.562Z,22.97
2023-04-06T06:03:35.566Z,16.70
2023-04-06T06:06:06.597Z,17.40
2023-04-06T06:08:37.778Z,12.60
2023-04-06T06:11:08.632Z,14.00
2023-04-06T06:13:39.484Z,21.23
2023-04-06T06:16:10.418Z,16.77
2023-04-06T06:18:41.310Z,22.00
2023-04-06T06:21:13.452Z,16.40
2023-04-06T06:23:44.599Z,19.07
2023-04-06T06:26:15.903Z,14.30
2023-04-06T06:28:46.893Z,15.20
2023-04-06T06:31:18.087Z,17.07
2023-04-06T06:33:52.398Z,14.63
2023-04-06T06:36:23.497Z,18.77
2023-04-06T06:38:54.393Z,23.37
2023-04-06T06:41:27.215Z,12.20
2023-04-06T06:43:58.079Z,13.60
2023-04-06T06:46:28.921Z,16.93
2023-04-06T06:49:00.251Z,11.07
2023-04-06T06:51:31.431Z,13.07
2023-04-06T06:54:02.306Z,13.57
2023-04-06T06:56:33.194Z,12.93
2023-04-06T06:59:04.123Z,13.90
2023-04-06T07:01:35.761Z,12.33
2023-04-06T07:04:07.434Z,11.13
2023-04-06T07:06:38.727Z,22.27
2023-04-06T07:09:09.713Z,14.30
2023-04-06T07:11:40.713Z,11.47
2023-04-06T07:14:12.684Z,15.07
2023-04-06T07:16:46.074Z,14.23
2023-04-06T07:19:17.078Z,12.60
2023-04-06T07:21:47.896Z,13.00
2023-04-06T07:24:18.802Z,14.33
2023-04-06T07:26:49.673Z,11.73
2023-04-06T07:29:20.679Z,15.93
2023-04-06T07:31:51.714Z,11.47
2023-04-06T07:34:23.405Z,15.73
2023-04-06T07:36:54.907Z,13.07
2023-04-06T07:39:27.777Z,12.40
2023-04-06T07:41:58.689Z,12.07
2023-04-06T07:44:29.851Z,17.10
2023-04-06T07:47:01.290Z,18.30
2023-04-06T07:49:33.894Z,14.63
2023-04-06T07:52:05.007Z,11.70
2023-04-06T07:54:35.972Z,17.10
2023-04-06T07:57:06.878Z,16.73
2023-04-06T07:59:37.993Z,15.77
2023-04-06T08:02:08.901Z,12.37
2023-04-06T08:04:39.943Z,12.13
2023-04-06T08:07:11.039Z,14.60
2023-04-06T08:09:41.922Z,17.30
2023-04-06T08:12:12.810Z,11.33
2023-04-06T08:14:43.720Z,11.40
2023-04-06T08:17:14.600Z,13.50
2023-04-06T08:19:46.077Z,13.50
2023-04-06T08:22:16.925Z,13.50
2023-04-06T08:24:47.781Z,13.87
2023-04-06T08:27:18.921Z,19.17
2023-04-06T08:29:52.152Z,16.43
2023-04-06T08:32:23.007Z,14.63
2023-04-06T08:34:57.070Z,13.63
2023-04-06T08:37:28.299Z,15.83
2023-04-06T08:39:59.176Z,13.67
2023-04-06T08:42:34.261Z,16.63
2023-04-06T08:45:05.921Z,11.83
2023-04-06T08:47:38.170Z,16.90
2023-04-06T08:50:12.646Z,17.50
2023-04-06T08:52:48.957Z,14.93
2023-04-06T08:55:19.843Z,12.87
2023-04-06T08:57:51.353Z,12.67
2023-04-06T09:00:22.911Z,10.10
2023-04-06T09:02:56.508Z,11.23
2023-04-06T09:05:27.644Z,17.90
2023-04-06T09:07:58.785Z,10.13
2023-04-06T09:10:30.304Z,9.87
2023-04-06T09:13:09.211Z,12.70
2023-04-06T09:15:40.541Z,11.27
2023-04-06T09:18:11.538Z,11.97
2023-04-06T09:20:42.410Z,11.77
2023-04-06T09:23:19.918Z,11.13
2023-04-06T09:25:50.976Z,14.90
2023-04-06T09:28:21.846Z,12.77
2023-04-06T09:30:52.693Z,12.73
2023-04-06T09:33:24.859Z,9.90
2023-04-06T09:35:55.847Z,11.33
2023-04-06T09:38:26.743Z,11.83
2023-04-06T09:41:01.085Z,16.47
2023-04-06T09:43:32.562Z,10.83
2023-04-06T09:46:05.433Z,15.10
2023-04-06T09:48:37.053Z,13.10
2023-04-06T09:51:09.518Z,9.23
2023-04-06T09:53:43.534Z,6.90
2023-04-06T09:56:22.009Z,10.57
2023-04-06T09:59:03.958Z,8.00
2023-04-06T10:01:37.516Z,9.27
2023-04-06T10:04:13.468Z,9.37
2023-04-06T10:06:48.998Z,8.37
2023-04-06T10:09:26.095Z,10.10
2023-04-06T10:11:56.909Z,11.30
2023-04-06T10:14:28.117Z,9.80
2023-04-06T10:16:59.584Z,10.47
2023-04-06T10:19:46.075Z,8.90
2023-04-06T10:22:35.920Z,9.73
2023-04-06T10:25:07.384Z,6.80
2023-04-06T10:27:38.225Z,7.70
2023-04-06T10:30:09.262Z,8.67
2023-04-06T10:32:40.850Z,8.23
2023-04-06T10:35:16.840Z,11.10
2023-04-06T10:37:52.693Z,9.63
2023-04-06T10:40:27.863Z,8.27
2023-04-06T10:43:11.124Z,7.50
2023-04-06T10:45:44.130Z,8.97
2023-04-06T10:48:19.775Z,8.77
2023-04-06T10:50:52.945Z,11.80
2023-04-06T10:53:28.876Z,7.00
2023-04-06T10:56:00.873Z,11.00
2023-04-06T10:58:31.864Z,7.63
2023-04-06T11:01:03.378Z,6.83
2023-04-06T11:03:45.467Z,8.33
2023-04-06T11:06:25.649Z,7.40
2023-04-06T11:08:57.984Z,6.93
2023-04-06T11:11:28.964Z,6.70
2023-04-06T11:14:02.015Z,9.00
2023-04-06T11:16:34.214Z,8.23
2023-04-06T11:19:10.590Z,9.30
2023-04-06T11:21:48.956Z,7.03
2023-04-06T11:24:22.809Z,14.63
2023-04-06T11:26:59.340Z,7.53
2023-04-06T11:29:32.668Z,8.90
2023-04-06T11:32:06.652Z,11.87
2023-04-06T11:34:40.044Z,7.20
2023-04-06T11:37:12.997Z,13.73
2023-04-06T11:39:53.375Z,9.43
2023-04-06T11:42:30.392Z,9.37
2023-04-06T11:45:01.746Z,8.00
2023-04-06T11:47:36.481Z,9.90
2023-04-06T11:50:15.364Z,6.67
2023-04-06T11:52:46.565Z,8.97
2023-04-06T11:55:19.839Z,7.40
2023-04-06T11:57:51.221Z,7.50
2023-04-06T12:00:22.980Z,9.03
2023-04-06T12:02:53.975Z,7.63
2023-04-06T12:05:25.987Z,9.80
2023-04-06T12:07:58.102Z,8.83
2023-04-06T12:10:31.200Z,6.47
2023-04-06T12:13:02.255Z,9.10
2023-04-06T12:15:33.169Z,6.63
2023-04-06T12:18:04.161Z,11.23
2023-04-06T12:20:35.168Z,7.60
2023-04-06T12:23:06.049Z,7.07
2023-04-06T12:25:37.063Z,11.10
2023-04-06T12:28:08.079Z,8.77
2023-04-06T12:30:39.065Z,7.50
2023-04-06T12:33:10.013Z,6.40
2023-04-06T12:35:40.983Z,6.80
2023-04-06T12:38:12.386Z,9.10
2023-04-06T12:40:43.222Z,6.00
2023-04-06T12:43:14.469Z,7.47
2023-04-06T12:45:45.427Z,7.10
2023-04-06T12:48:16.324Z,10.67
2023-04-06T12:51:03.196Z,7.57
2023-04-06T12:53:35.771Z,7.13
2023-04-06T12:56:18.522Z,9.17
2023-04-06T12:58:52.050Z,8.40
2023-04-06T13:01:23.130Z,9.93
2023-04-06T13:03:54.027Z,6.73
2023-04-06T13:06:28.446Z,8.13
2023-04-06T13:08:59.611Z,7.77
2023-04-06T13:11:31.172Z,8.13
2023-04-06T13:14:02.031Z,8.10
2023-04-06T13:16:33.267Z,6.13
2023-04-06T13:19:04.397Z,8.20
2023-04-06T13:21:35.387Z,8.00
2023-04-06T13:24:06.705Z,7.20
2023-04-06T13:26:37.696Z,5.80
2023-04-06T13:29:08.618Z,5.70
2023-04-06T13:31:39.946Z,7.03
2023-04-06T13:34:11.219Z,6.23
2023-04-06T13:36:42.849Z,6.07
2023-04-06T13:39:13.774Z,11.07
2023-04-06T13:41:44.700Z,6.63
2023-04-06T13:44:15.638Z,7.80
2023-04-06T13:46:46.472Z,7.20
2023-04-06T13:49:17.316Z,7.70
2023-04-06T13:51:48.308Z,9.20
2023-04-06T13:54:19.280Z,7.40
2023-04-06T13:56:50.463Z,9.47
2023-04-06T13:59:21.347Z,7.43
2023-04-06T14:01:52.259Z,8.37
2023-04-06T14:04:23.273Z,7.50
2023-04-06T14:06:54.186Z,6.13
2023-04-06T14:09:25.422Z,10.13
2023-04-06T14:11:57.287Z,6.73
2023-04-06T14:14:28.673Z,8.90
2023-04-06T14:16:59.554Z,10.20
2023-04-06T14:19:31.042Z,8.83
2023-04-06T14:22:01.875Z,10.40
2023-04-06T14:24:32.840Z,7.83
2023-04-06T14:27:04.002Z,8.67
2023-04-06T14:29:34.896Z,8.20
2023-04-06T14:32:05.794Z,11.43
2023-04-06T14:34:39.057Z,8.13
2023-04-06T14:37:10.031Z,7.70
2023-04-06T14:39:41.073Z,8.17
2023-04-06T14:42:11.918Z,8.27
2023-04-06T14:44:45.442Z,6.60
2023-04-06T14:47:21.407Z,5.50
2023-04-06T14:49:54.350Z,6.50
2023-04-06T14:52:25.644Z,8.73
2023-04-06T14:54:56.487Z,7.80
2023-04-06T14:57:27.527Z,6.33
2023-04-06T14:59:58.404Z,8.93
2023-04-06T15:02:29.338Z,7.97
2023-04-06T15:05:00.580Z,5.93
2023-04-06T15:07:31.428Z,7.37
2023-04-06T15:10:02.425Z,6.97
2023-04-06T15:12:33.749Z,5.17
2023-04-06T15:15:06.263Z,8.23
2023-04-06T15:17:37.288Z,5.67
2023-04-06T15:20:08.726Z,18.07
2023-04-06T15:22:39.561Z,7.67
2023-04-06T15:25:10.436Z,8.23
2023-04-06T15:27:41.309Z,9.67
2023-04-06T15:30:12.789Z,8.77
2023-04-06T15:33:01.777Z,7.80
2023-04-06T15:35:35.042Z,6.63
2023-04-06T15:38:07.395Z,9.07
2023-04-06T15:40:49.322Z,10.77
2023-04-06T15:43:20.383Z,6.93
2023-04-06T15:45:51.408Z,7.10
2023-04-06T15:48:23.085Z,6.60
2023-04-06T15:50:53.952Z,8.00
2023-04-06T15:53:25.380Z,5.87
2023-04-06T15:56:01.764Z,8.50
2023-04-06T15:58:36.485Z,6.33
2023-04-06T16:01:16.265Z,11.33
2023-04-06T16:03:47.593Z,7.60
2023-04-06T16:06:18.543Z,7.77
2023-04-06T16:08:49.472Z,10.70
2023-04-06T16:11:21.252Z,7.40
2023-04-06T16:13:55.170Z,8.90
2023-04-06T16:16:27.150Z,9.93
2023-04-06T16:18:58.061Z,11.40
2023-04-06T16:21:29.028Z,14.13
2023-04-06T16:24:00.184Z,9.13
2023-04-06T16:26:31.879Z,7.47
2023-04-06T16:29:02.774Z,8.70
2023-04-06T16:31:33.727Z,10.97
2023-04-06T16:34:04.656Z,10.30
2023-04-06T16:36:35.703Z,8.97
2023-04-06T16:39:07.375Z,8.87
2023-04-06T16:41:39.652Z,9.90
2023-04-06T16:44:11.633Z,11.73
2023-04-06T16:46:44.001Z,11.03
2023-04-06T16:49:15.006Z,8.13
2023-04-06T16:51:46.086Z,9.60
2023-04-06T16:54:17.142Z,12.67
2023-04-06T16:56:48.093Z,13.23
2023-04-06T16:59:18.946Z,11.43
2023-04-06T17:01:49.887Z,12.23
2023-04-06T17:04:22.109Z,10.43
2023-04-06T17:06:53.016Z,12.70
2023-04-06T17:09:25.291Z,12.33
2023-04-06T17:11:56.814Z,9.10
2023-04-06T17:14:27.756Z,11.83
2023-04-06T17:16:58.674Z,13.00
2023-04-06T17:19:29.584Z,9.60
2023-04-06T17:22:00.725Z,10.40
2023-04-06T17:24:31.629Z,8.00
2023-04-06T17:27:02.839Z,9.03
2023-04-06T17:29:37.163Z,10.00
2023-04-06T17:32:08.105Z,9.83
2023-04-06T17:34:39.062Z,9.00
2023-04-06T17:37:09.896Z,10.13
2023-04-06T17:39:41.089Z,8.73
2023-04-06T17:42:11.929Z,9.10
2023-04-06T17:44:42.788Z,6.97
2023-04-06T17:47:13.628Z,5.87
2023-04-06T17:49:44.697Z,5.87
2023-04-06T17:52:15.626Z,6.73
2023-04-06T17:54:46.767Z,7.70
2023-04-06T17:57:17.792Z,5.80
2023-04-06T17:59:49.181Z,14.00
2023-04-06T18:02:20.685Z,16.57
2023-04-06T18:04:53.415Z,11.57
2023-04-06T18:07:24.303Z,11.73
2023-04-06T18:09:55.551Z,7.30
2023-04-06T18:12:26.681Z,8.67
2023-04-06T18:14:57.625Z,8.33
2023-04-06T18:17:28.619Z,12.70
2023-04-06T18:19:59.949Z,14.60
2023-04-06T18:22:33.295Z,11.70
2023-04-06T18:25:06.426Z,10.20
2023-04-06T18:27:37.370Z,10.00
2023-04-06T18:30:08.989Z,5.97
2023-04-06T18:32:40.384Z,6.00
2023-04-06T18:35:11.633Z,5.87
2023-04-06T18:37:42.472Z,6.27
2023-04-06T18:40:37.253Z,5.60
2023-04-06T18:43:08.782Z,5.13
2023-04-06T18:45:39.760Z,7.97
2023-04-06T18:48:11.104Z,5.13
2023-04-06T18:50:51.897Z,7.80
2023-04-06T18:53:22.773Z,5.27
2023-04-06T18:55:53.632Z,6.63
2023-04-06T18:58:25.732Z,5.23
2023-04-06T19:00:59.411Z,5.70
2023-04-06T19:03:30.441Z,5.60
2023-04-06T19:06:01.382Z,5.60
2023-04-06T19:08:32.244Z,6.20
2023-04-06T19:11:10.008Z,8.30
2023-04-06T19:13:41.982Z,5.93
2023-04-06T19:16:13.158Z,6.27
2023-04-06T19:18:45.526Z,5.83
2023-04-06T19:21:21.540Z,8.80
2023-04-06T19:23:55.291Z,6.40
2023-04-06T19:26:30.525Z,5.83
2023-04-06T19:29:01.457Z,5.13
2023-04-06T19:31:32.429Z,5.97
2023-04-06T19:34:04.074Z,7.80
2023-04-06T19:36:35.065Z,5.57
2023-04-06T19:39:06.031Z,4.80
2023-04-06T19:41:38.777Z,8.70
2023-04-06T19:44:09.727Z,5.97
2023-04-06T19:46:40.633Z,12.90
2023-04-06T19:49:11.878Z,8.60
2023-04-06T19:51:42.793Z,4.20
2023-04-06T19:54:13.704Z,4.60
2023-04-06T19:56:44.537Z,5.57
2023-04-06T19:59:18.625Z,4.60
2023-04-06T20:01:49.703Z,5.17
2023-04-06T20:04:20.930Z,5.57
2023-04-06T20:06:52.172Z,3.33
2023-04-06T20:09:23.070Z,3.23
2023-04-06T20:11:54.752Z,4.50
2023-04-06T20:14:26.029Z,4.93
2023-04-06T20:16:57.777Z,2.80
2023-04-06T20:19:28.744Z,2.90
2023-04-06T20:22:03.478Z,2.50
2023-04-06T20:24:34.342Z,2.90
2023-04-06T20:27:05.264Z,2.67
2023-04-06T20:29:36.223Z,3.20
2023-04-06T20:32:07.620Z,2.93
2023-04-06T20:34:38.647Z,2.50
2023-04-06T20:37:09.616Z,2.90
2023-04-06T20:39:40.596Z,3.60
2023-04-06T20:42:12.525Z,3.50
2023-04-06T20:44:43.442Z,3.23
2023-04-06T20:47:14.415Z,3.60
2023-04-06T20:49:45.333Z,3.40
2023-04-06T20:52:16.205Z,4.87
2023-04-06T20:54:47.670Z,4.57
2023-04-06T20:57:19.103Z,5.63
2023-04-06T20:59:50.307Z,13.03
2023-04-06T21:02:21.521Z,4.73
2023-04-06T21:04:52.520Z,4.43
2023-04-06T21:07:23.372Z,4.37
2023-04-06T21:09:54.336Z,6.40
2023-04-06T21:12:27.071Z,6.70
2023-04-06T21:14:58.490Z,4.83
2023-04-06T21:17:29.396Z,5.07
2023-04-06T21:20:00.282Z,7.93
2023-04-06T21:22:31.122Z,5.00
2023-04-06T21:25:02.069Z,5.00
2023-04-06T21:27:32.925Z,5.80
2023-04-06T21:30:04.310Z,4.50
2023-04-06T21:32:36.868Z,8.03
2023-04-06T21:35:08.808Z,4.60
2023-04-06T21:37:39.629Z,5.07
2023-04-06T21:40:12.257Z,5.03
2023-04-06T21:42:43.069Z,5.33
2023-04-06T21:45:14.065Z,5.50
2023-04-06T21:47:44.980Z,5.43
2023-04-06T21:50:16.466Z,5.70
2023-04-06T21:52:47.375Z,6.53
2023-04-06T21:55:18.345Z,6.10
2023-04-06T21:57:49.183Z,6.17
2023-04-06T22:00:20.493Z,8.03
2023-04-06T22:02:51.556Z,9.00
2023-04-06T22:05:22.805Z,8.77
2023-04-06T22:07:53.835Z,6.80
2023-04-06T22:10:24.855Z,9.20
2023-04-06T22:12:56.138Z,7.70
2023-04-06T22:15:27.317Z,11.20
2023-04-06T22:17:58.200Z,9.03
2023-04-06T22:20:29.201Z,14.60
2023-04-06T22:23:00.454Z,13.00
2023-04-06T22:25:31.832Z,11.83
2023-04-06T22:28:02.722Z,11.80
2023-04-06T22:30:33.784Z,9.17
2023-04-06T22:33:04.773Z,10.40
2023-04-06T22:35:35.838Z,7.53
2023-04-06T22:38:06.784Z,12.40
2023-04-06T22:40:37.646Z,7.63
2023-04-06T22:43:08.521Z,10.33
2023-04-06T22:45:39.355Z,9.70
2023-04-06T22:48:10.273Z,8.90
2023-04-06T22:50:41.541Z,9.33
2023-04-06T22:53:12.440Z,12.90
2023-04-06T22:55:43.493Z,7.77
2023-04-06T22:58:14.351Z,8.87
2023-04-06T23:00:45.248Z,8.60
2023-04-06T23:03:16.480Z,8.60
2023-04-06T23:05:47.694Z,8.43
2023-04-06T23:08:18.574Z,8.10
2023-04-06T23:10:51.217Z,7.63
2023-04-06T23:13:22.078Z,7.83
2023-04-06T23:15:52.939Z,7.10
2023-04-06T23:18:23.828Z,9.00
2023-04-06T23:20:54.734Z,7.83
2023-04-06T23:23:25.780Z,8.37
2023-04-06T23:25:56.715Z,7.73
2023-04-06T23:28:27.598Z,9.03
2023-04-06T23:30:58.448Z,7.73
2023-04-06T23:33:29.554Z,7.93
2023-04-06T23:36:00.788Z,13.50
2023-04-06T23:38:31.701Z,9.23
2023-04-06T23:41:02.621Z,7.97
2023-04-06T23:43:33.498Z,11.17
2023-04-06T23:46:04.397Z,11.93
2023-04-06T23:48:35.270Z,11.07
2023-04-06T23:51:06.754Z,10.17
2023-04-06T23:53:37.731Z,11.30
2023-04-06T23:56:09.182Z,7.80
2023-04-06T23:58:40.088Z,9.00
